Sunday, December 8, 2019, 4:35 PM EST
Back to Local

KHVN, Tweed-new Haven Airport

Location: East Haven, CT, United States Lat: 41.267
Local Time: 4:35 PM EST (21:35 GMT) Lon: -72.883
Time Zone: US/Eastern Elev: 13 ft

Show me the last for .
Show Decoded

2019-12-08 15:53 METAR KHVN 082053Z 19008KT 10SM CLR 04/M04 A3045 RMK AO2 SLP312 T00391044 58010
                 $ =
2019-12-08 14:53 METAR KHVN 081953Z 21006KT 10SM CLR 04/M06 A3047 RMK AO2 SLP317 T00391061 $ =
2019-12-08 13:53 METAR KHVN 081853Z 17007KT 10SM CLR 03/M06 A3047 RMK AO2 SLP318 T00281061 $ =
2019-12-08 12:53 METAR KHVN 081753Z 15006KT 10SM CLR 03/M07 A3048 RMK AO2 SLP322 I6000 T00331067
                 10033 21083 58024 $ =
2019-12-08 11:53 METAR KHVN 081653Z 15005KT 10SM CLR 02/M07 A3051 RMK AO2 SLP331 T00171067 $ =
2019-12-08 10:53 METAR KHVN 081553Z VRB03KT 10SM CLR 02/M09 A3053 RMK AO2 SLP339 T00171089 $ =
2019-12-08 09:53 METAR KHVN 081453Z 00000KT 10SM CLR 00/M08 A3056 RMK AO2 SLP346 I3000 T00001078
                 50001 $ =
2019-12-08 08:53 METAR KHVN 081353Z 00000KT 10SM CLR M03/M08 A3056 RMK AO2 SLP347 T10281078 $ =
2019-12-08 07:53 METAR KHVN 081253Z 00000KT 10SM CLR M06/M08 A3056 RMK AO2 SLP346 I1000 T10611083
                 $ =
2019-12-08 06:53 METAR KHVN 081153Z 00000KT 10SM CLR M08/M11 A3055 RMK AO2 SLP345 I1000 I6000
                 T10781111 11028 21083 53009 $ =
2019-12-08 05:53 METAR KHVN 081053Z 00000KT 10SM CLR M07/M11 A3054 RMK AO2 SLP340 I1000 T10721111
                 $ =
2019-12-08 04:53 METAR KHVN 080953Z AUTO 00000KT 10SM CLR M08/M11 A3052 RMK AO2 SLP336 I1000
                 T10831111 $ =
2019-12-08 03:53 METAR KHVN 080853Z AUTO 00000KT 10SM CLR M08/M12 A3052 RMK AO2 SLP335 T10831117
                 $ =
2019-12-08 02:53 METAR KHVN 080753Z AUTO 00000KT 10SM CLR M07/M11 A3053 RMK AO2 SLP337 T10671106
                 $ =
2019-12-08 00:53 METAR KHVN 080553Z AUTO 04003KT 10SM CLR M05/M11 A3051 RMK AO2 SLP330 T10501111
                 10011 21061 50006 $ =
2019-12-07 23:53 METAR KHVN 080453Z AUTO 00000KT 10SM CLR M04/M11 A3051 RMK AO2 SLP331 T10391106
                 400441044 $ =
2019-12-07 22:53 METAR KHVN 080353Z AUTO 01003KT 10SM CLR M03/M10 A3050 RMK AO2 SLP329 T10281100
                 $ =
2019-12-07 21:53 METAR KHVN 080253Z 35004KT 10SM CLR M02/M10 A3049 RMK AO2 SLP325 T10221100 53018
                 $ =
2019-12-07 20:53 METAR KHVN 080153Z 36005KT 10SM CLR M02/M09 A3047 RMK AO2 SLP319 T10221094 $ =
2019-12-07 19:53 METAR KHVN 080053Z 35004KT 10SM CLR M01/M09 A3045 RMK AO2 SLP312 T10061094 $ =
2019-12-07 18:53 METAR KHVN 072353Z 34006KT 10SM CLR 01/M09 A3044 RMK AO2 SLP306 T00111094 10044
                 20006 53024 $ =
2019-12-07 17:53 METAR KHVN 072253Z 33004KT 10SM CLR 02/M09 A3041 RMK AO2 SLP298 T00171094 =
2019-12-07 16:53 METAR KHVN 072153Z 33008KT 10SM CLR 03/M09 A3038 RMK AO2 SLP288 T00281094 $ =

Support USWX by starting your Amazon purchase here.